createdAt,value
2018-07-23T00:00:09.970Z,6.33
2018-07-23T00:02:41.208Z,7.03
2018-07-23T00:05:09.335Z,6.43
2018-07-23T00:07:41.974Z,6.10
2018-07-23T00:10:10.367Z,6.90
2018-07-23T00:12:43.969Z,6.80
2018-07-23T00:15:12.344Z,6.77
2018-07-23T00:17:40.958Z,7.90
2018-07-23T00:20:09.137Z,7.13
2018-07-23T00:22:37.335Z,7.40
2018-07-23T00:25:05.798Z,7.40
2018-07-23T00:27:34.138Z,7.20
2018-07-23T00:30:02.333Z,7.00
2018-07-23T00:32:31.002Z,6.93
2018-07-23T00:41:37.956Z,7.83
2018-07-23T00:44:06.362Z,7.20
2018-07-23T00:46:34.962Z,7.50
2018-07-23T00:49:06.352Z,8.47
2018-07-23T00:51:34.770Z,8.57
2018-07-23T00:54:08.478Z,8.20
2018-07-23T00:56:37.214Z,9.27
2018-07-23T00:59:10.295Z,7.80
2018-07-23T01:01:38.739Z,8.17
2018-07-23T01:04:06.971Z,8.70
2018-07-23T01:06:35.829Z,8.93
2018-07-23T01:09:05.922Z,9.20
2018-07-23T01:11:34.411Z,8.83
2018-07-23T01:14:02.563Z,8.80
2018-07-23T01:16:31.050Z,9.33
2018-07-23T01:18:59.424Z,8.97
2018-07-23T01:21:27.814Z,10.00
2018-07-23T01:23:56.271Z,9.63
2018-07-23T01:26:24.472Z,8.77
2018-07-23T01:28:52.611Z,9.40
2018-07-23T01:31:34.383Z,9.50
2018-07-23T01:34:02.538Z,10.50
2018-07-23T01:36:31.191Z,10.10
2018-07-23T01:38:59.362Z,10.53
2018-07-23T01:41:31.055Z,9.53
2018-07-23T01:43:59.683Z,10.77
2018-07-23T01:46:35.712Z,10.97
2018-07-23T01:49:03.885Z,9.33
2018-07-23T01:51:36.964Z,10.27
2018-07-23T01:54:05.459Z,10.37
2018-07-23T01:56:37.874Z,10.63
2018-07-23T01:59:06.341Z,10.13
2018-07-23T02:01:34.501Z,11.33
2018-07-23T02:04:02.645Z,10.60
2018-07-23T02:06:31.175Z,10.27
2018-07-23T02:08:59.331Z,9.30
2018-07-23T02:11:27.486Z,10.37
2018-07-23T02:13:56.035Z,11.07
2018-07-23T02:16:24.442Z,10.67
2018-07-23T02:18:52.775Z,11.00
2018-07-23T02:21:21.260Z,10.57
2018-07-23T02:24:01.859Z,12.47
2018-07-23T02:26:30.750Z,10.03
2018-07-23T02:28:58.943Z,10.43
2018-07-23T02:31:27.415Z,10.60
2018-07-23T02:34:01.014Z,11.60
2018-07-23T02:36:29.179Z,9.80
2018-07-23T02:39:01.654Z,10.50
2018-07-23T02:41:29.787Z,10.03
2018-07-23T02:43:57.928Z,10.70
2018-07-23T02:46:26.408Z,10.63
2018-07-23T02:48:54.557Z,9.87
2018-07-23T02:51:22.691Z,10.40
2018-07-23T02:53:51.244Z,10.37
2018-07-23T02:56:19.407Z,10.97
2018-07-23T02:58:47.563Z,9.80
2018-07-23T03:01:16.135Z,10.33
2018-07-23T03:03:45.350Z,10.40
2018-07-23T03:06:16.635Z,10.13
2018-07-23T03:08:45.498Z,10.50
2018-07-23T03:11:17.423Z,10.47
2018-07-23T03:13:45.596Z,10.90
2018-07-23T03:16:14.486Z,12.00
2018-07-23T03:18:42.958Z,10.97
2018-07-23T03:21:11.853Z,10.33
2018-07-23T03:23:40.710Z,10.63
2018-07-23T03:26:09.339Z,10.93
2018-07-23T03:28:38.695Z,11.10
2018-07-23T03:31:07.347Z,11.77
2018-07-23T03:33:35.790Z,12.80
2018-07-23T03:36:04.060Z,11.17
2018-07-23T03:38:33.528Z,11.80
2018-07-23T03:41:02.661Z,11.87
2018-07-23T03:43:35.720Z,12.03
2018-07-23T03:46:04.296Z,11.30
2018-07-23T03:48:37.840Z,11.23
2018-07-23T03:51:06.524Z,11.67
2018-07-23T03:56:16.555Z,12.00
2018-07-23T03:58:45.134Z,12.07
2018-07-23T04:01:13.275Z,13.13
2018-07-23T04:03:48.654Z,12.40
2018-07-23T04:06:17.113Z,12.50
2018-07-23T04:08:48.847Z,12.47
2018-07-23T04:11:17.051Z,12.10
2018-07-23T04:13:50.515Z,11.60
2018-07-23T04:16:18.828Z,12.00
2018-07-23T04:18:46.960Z,13.23
2018-07-23T04:21:15.558Z,12.30
2018-07-23T04:23:43.866Z,12.37
2018-07-23T04:26:12.022Z,12.00
2018-07-23T04:28:40.414Z,11.57
2018-07-23T04:31:08.562Z,12.50
2018-07-23T04:33:37.119Z,12.13
2018-07-23T04:36:05.616Z,12.90
2018-07-23T04:38:33.960Z,12.50
2018-07-23T04:41:07.012Z,12.30
2018-07-23T04:43:35.849Z,11.73
2018-07-23T04:46:10.480Z,13.57
2018-07-23T04:48:39.122Z,11.80
2018-07-23T04:51:12.219Z,12.00
2018-07-23T04:53:40.362Z,12.90
2018-07-23T04:56:08.529Z,12.20
2018-07-23T04:58:37.814Z,12.60
2018-07-23T05:01:06.136Z,12.53
2018-07-23T05:03:34.366Z,13.90
2018-07-23T05:06:03.878Z,12.47
2018-07-23T05:08:32.728Z,13.53
2018-07-23T05:11:02.219Z,12.17
2018-07-23T05:13:30.837Z,12.30
2018-07-23T05:15:59.097Z,12.70
2018-07-23T05:18:27.237Z,13.40
2018-07-23T05:20:55.834Z,12.53
2018-07-23T05:23:29.298Z,12.93
2018-07-23T05:25:57.470Z,12.73
2018-07-23T05:28:30.260Z,12.90
2018-07-23T05:31:00.251Z,12.70
2018-07-23T05:33:33.247Z,13.60
2018-07-23T05:36:01.696Z,12.97
2018-07-23T05:38:30.031Z,14.47
2018-07-23T05:41:05.191Z,12.70
2018-07-23T05:43:37.917Z,13.63
2018-07-23T05:46:06.243Z,12.20
2018-07-23T05:48:34.554Z,12.40
2018-07-23T05:51:02.994Z,13.33
2018-07-23T05:53:31.874Z,14.00
2018-07-23T05:56:00.064Z,13.83
2018-07-23T05:58:28.291Z,13.60
2018-07-23T06:00:56.480Z,14.13
2018-07-23T06:03:25.002Z,14.13
2018-07-23T06:05:53.189Z,14.23
2018-07-23T06:08:21.809Z,13.97
2018-07-23T06:10:54.909Z,14.43
2018-07-23T06:13:23.134Z,13.90
2018-07-23T06:15:55.863Z,13.40
2018-07-23T06:18:24.514Z,14.37
2018-07-23T06:20:52.668Z,13.30
2018-07-23T06:23:20.810Z,13.73
2018-07-23T06:25:49.735Z,14.20
2018-07-23T06:28:17.887Z,14.43
2018-07-23T06:30:46.035Z,13.87
2018-07-23T06:33:17.651Z,14.27
2018-07-23T06:35:45.834Z,14.23
2018-07-23T06:38:18.414Z,13.53
2018-07-23T06:40:47.098Z,14.13
2018-07-23T06:43:15.373Z,15.40
2018-07-23T06:45:43.515Z,15.93
2018-07-23T06:48:16.846Z,14.23
2018-07-23T06:50:45.057Z,15.03
2018-07-23T06:53:27.403Z,15.03
2018-07-23T06:55:56.178Z,14.60
2018-07-23T06:58:24.318Z,13.47
2018-07-23T07:00:52.462Z,13.80
2018-07-23T07:03:23.644Z,12.60
2018-07-23T07:05:51.704Z,12.80
2018-07-23T07:08:24.658Z,13.17
2018-07-23T07:10:53.549Z,11.80
2018-07-23T07:13:26.471Z,12.78
2018-07-23T07:15:57.109Z,12.37
2018-07-23T07:18:29.727Z,13.93
2018-07-23T07:20:58.240Z,12.85
2018-07-23T07:23:32.648Z,12.78
2018-07-23T07:26:05.355Z,13.40
2018-07-23T07:28:38.677Z,13.53
2018-07-23T07:31:06.940Z,12.60
2018-07-23T07:33:43.457Z,13.18
2018-07-23T07:36:12.419Z,12.68
2018-07-23T07:38:44.051Z,13.20
2018-07-23T07:41:12.490Z,12.45
2018-07-23T07:43:44.130Z,11.33
2018-07-23T07:46:13.752Z,12.58
2018-07-23T07:48:48.036Z,17.75
2018-07-23T07:51:16.551Z,13.25
2018-07-23T07:53:49.649Z,11.20
2018-07-23T07:56:18.135Z,12.45
2018-07-23T07:58:52.230Z,11.55
2018-07-23T08:01:22.055Z,13.45
2018-07-23T08:03:54.653Z,11.83
2018-07-23T08:06:23.062Z,12.45
2018-07-23T08:08:53.073Z,12.13
2018-07-23T08:11:28.315Z,13.70
2018-07-23T08:14:08.551Z,12.28
2018-07-23T08:19:12.727Z,14.50
2018-07-23T08:21:41.261Z,13.13
2018-07-23T08:24:10.470Z,14.43
2018-07-23T08:26:39.552Z,13.85
2018-07-23T08:29:12.287Z,12.15
2018-07-23T08:31:41.278Z,12.07
2018-07-23T08:34:17.687Z,11.97
2018-07-23T08:36:46.167Z,12.98
2018-07-23T08:39:18.444Z,12.33
2018-07-23T08:41:49.929Z,10.70
2018-07-23T08:44:19.649Z,11.60
2018-07-23T08:46:48.754Z,10.25
2018-07-23T08:49:21.523Z,10.82
2018-07-23T08:51:50.415Z,9.55
2018-07-23T08:54:29.243Z,10.80
2018-07-23T08:56:59.641Z,9.43
2018-07-23T08:59:29.411Z,9.95
2018-07-23T09:01:57.631Z,11.38
2018-07-23T09:04:31.432Z,11.08
2018-07-23T09:06:59.621Z,11.60
2018-07-23T09:09:32.620Z,11.25
2018-07-23T09:12:05.221Z,11.08
2018-07-23T09:14:33.552Z,11.25
2018-07-23T09:17:05.035Z,9.98
2018-07-23T09:19:36.491Z,11.68
2018-07-23T09:22:06.670Z,9.88
2018-07-23T09:24:39.124Z,10.88
2018-07-23T09:27:08.776Z,10.50
2018-07-23T09:29:42.492Z,10.08
2018-07-23T09:32:16.680Z,10.70
2018-07-23T09:34:46.178Z,11.35
2018-07-23T09:37:15.517Z,9.75
2018-07-23T09:39:48.662Z,10.43
2018-07-23T09:42:18.252Z,10.58
2018-07-23T09:44:49.701Z,10.58
2018-07-23T09:47:18.110Z,9.20
2018-07-23T09:49:53.700Z,8.90
2018-07-23T09:52:21.951Z,11.63
2018-07-23T09:55:02.583Z,9.73
2018-07-23T09:57:31.157Z,10.98
2018-07-23T09:59:59.463Z,11.20
2018-07-23T10:02:28.085Z,9.00
2018-07-23T10:05:09.635Z,8.68
2018-07-23T10:07:38.296Z,10.40
2018-07-23T10:10:06.861Z,8.40
2018-07-23T10:12:38.568Z,9.35
2018-07-23T10:15:06.851Z,9.00
2018-07-23T10:17:35.810Z,8.10
2018-07-23T10:20:08.983Z,9.60
2018-07-23T10:22:39.259Z,9.65
2018-07-23T10:25:14.027Z,8.43
2018-07-23T10:27:44.535Z,7.95
2018-07-23T10:30:16.331Z,7.55
2018-07-23T10:32:44.497Z,8.18
2018-07-23T10:35:16.758Z,9.33
2018-07-23T10:37:45.023Z,9.55
2018-07-23T10:40:17.672Z,8.38
2018-07-23T10:42:46.553Z,8.73
2018-07-23T10:45:15.030Z,7.60
2018-07-23T10:47:46.032Z,6.80
2018-07-23T10:50:16.048Z,7.85
2018-07-23T10:52:44.352Z,7.12
2018-07-23T10:55:12.966Z,7.70
2018-07-23T10:57:42.412Z,7.58
2018-07-23T11:00:11.196Z,6.92
2018-07-23T11:02:40.160Z,7.08
2018-07-23T11:05:11.095Z,7.60
2018-07-23T11:07:39.298Z,5.90
2018-07-23T11:10:08.755Z,6.62
2018-07-23T11:12:38.038Z,6.53
2018-07-23T11:15:09.575Z,6.60
2018-07-23T11:17:40.398Z,6.65
2018-07-23T11:20:11.623Z,6.55
2018-07-23T11:22:41.743Z,7.10
2018-07-23T11:25:39.088Z,7.08
2018-07-23T11:27:51.725Z,8.03
2018-07-23T11:30:21.411Z,6.65
2018-07-23T11:32:50.765Z,6.50
2018-07-23T11:35:18.926Z,7.72
2018-07-23T11:37:51.566Z,7.35
2018-07-23T11:40:20.804Z,7.00
2018-07-23T11:42:55.798Z,6.12
2018-07-23T11:45:25.483Z,6.95
2018-07-23T11:47:54.832Z,6.35
2018-07-23T11:50:23.354Z,7.45
2018-07-23T11:53:03.888Z,6.60
2018-07-23T11:55:33.528Z,6.47
2018-07-23T11:58:02.580Z,5.85
2018-07-23T12:00:31.387Z,5.50
2018-07-23T12:03:03.072Z,6.95
2018-07-23T12:05:32.362Z,6.67
2018-07-23T12:08:06.100Z,5.72
2018-07-23T12:10:34.872Z,6.05
2018-07-23T12:13:08.651Z,5.25
2018-07-23T12:18:13.982Z,4.62
2018-07-23T12:20:42.843Z,4.55
2018-07-23T12:23:16.023Z,4.67
2018-07-23T12:25:44.892Z,4.85
2018-07-23T12:28:20.894Z,4.62
2018-07-23T12:30:50.741Z,4.90
2018-07-23T12:33:19.807Z,4.92
2018-07-23T12:35:48.726Z,4.65
2018-07-23T12:38:25.252Z,4.85
2018-07-23T12:40:54.171Z,4.03
2018-07-23T12:43:25.671Z,4.10
2018-07-23T12:45:54.479Z,4.60
2018-07-23T12:48:27.219Z,4.40
2018-07-23T12:50:56.838Z,4.28
2018-07-23T12:53:33.630Z,4.60
2018-07-23T12:56:01.812Z,4.47
2018-07-23T12:58:33.467Z,5.50
2018-07-23T13:01:02.569Z,5.60
2018-07-23T13:03:36.965Z,5.30
2018-07-23T13:06:05.395Z,5.60
2018-07-23T13:08:40.151Z,5.05
2018-07-23T13:11:08.400Z,4.90
2018-07-23T13:13:41.573Z,4.70
2018-07-23T13:16:10.278Z,5.72
2018-07-23T13:18:43.773Z,5.00
2018-07-23T13:21:12.542Z,5.15
2018-07-23T13:23:53.853Z,4.78
2018-07-23T13:26:22.342Z,4.30
2018-07-23T13:28:51.159Z,3.85
2018-07-23T13:31:21.508Z,4.12
2018-07-23T13:33:53.244Z,4.62
2018-07-23T13:36:22.143Z,3.92
2018-07-23T13:38:56.147Z,4.10
2018-07-23T13:41:24.615Z,4.83
2018-07-23T13:44:07.175Z,4.45
2018-07-23T13:46:37.939Z,4.47
2018-07-23T13:49:10.360Z,3.98
2018-07-23T13:51:42.351Z,4.30
2018-07-23T13:54:12.534Z,4.42
2018-07-23T13:56:43.480Z,4.58
2018-07-23T13:59:14.635Z,4.55
2018-07-23T14:01:44.459Z,4.97
2018-07-23T14:04:12.714Z,4.42
2018-07-23T14:06:42.890Z,5.22
2018-07-23T14:09:12.627Z,5.45
2018-07-23T14:11:41.144Z,4.90
2018-07-23T14:14:14.831Z,5.80
2018-07-23T14:16:43.022Z,5.00
2018-07-23T14:19:19.267Z,5.58
2018-07-23T14:21:47.441Z,5.22
2018-07-23T14:24:28.260Z,4.90
2018-07-23T14:26:56.691Z,5.20
2018-07-23T14:29:26.186Z,5.45
2018-07-23T14:31:56.407Z,5.03
2018-07-23T14:34:24.898Z,5.50
2018-07-23T14:36:53.359Z,5.40
2018-07-23T14:39:26.637Z,5.40
2018-07-23T14:41:55.051Z,5.58
2018-07-23T14:44:29.607Z,5.15
2018-07-23T14:46:59.166Z,6.20
2018-07-23T14:49:33.229Z,5.85
2018-07-23T14:52:01.532Z,5.70
2018-07-23T14:54:39.551Z,5.67
2018-07-23T14:57:08.236Z,4.97
2018-07-23T14:59:38.333Z,5.70
2018-07-23T15:02:06.582Z,5.42
2018-07-23T15:04:49.142Z,4.97
2018-07-23T15:07:17.780Z,5.25
2018-07-23T15:09:46.596Z,5.80
2018-07-23T15:12:15.446Z,5.50
2018-07-23T15:14:45.377Z,5.17
2018-07-23T15:17:14.214Z,6.10
2018-07-23T15:19:47.194Z,6.12
2018-07-23T15:22:15.660Z,5.78
2018-07-23T15:27:26.414Z,5.45
2018-07-23T15:29:55.714Z,5.97
2018-07-23T15:32:24.553Z,5.17
2018-07-23T15:35:00.168Z,5.08
2018-07-23T15:37:28.315Z,5.33
2018-07-23T15:40:10.747Z,5.60
2018-07-23T15:42:40.383Z,5.90
2018-07-23T15:45:10.632Z,5.45
2018-07-23T15:47:40.524Z,5.53
2018-07-23T15:50:10.664Z,4.50
2018-07-23T15:52:38.914Z,4.80
2018-07-23T15:55:23.549Z,4.62
2018-07-23T15:57:52.562Z,5.85
2018-07-23T16:00:20.966Z,5.12
2018-07-23T16:02:49.563Z,5.28
2018-07-23T16:05:18.833Z,5.30
2018-07-23T16:07:47.161Z,5.25
2018-07-23T16:10:18.541Z,5.03
2018-07-23T16:12:47.172Z,5.12
2018-07-23T16:15:21.296Z,5.22
2018-07-23T16:17:49.791Z,4.80
2018-07-23T16:20:25.972Z,5.50
2018-07-23T16:22:54.387Z,4.90
2018-07-23T16:25:26.117Z,5.10
2018-07-23T16:27:54.261Z,5.28
2018-07-23T16:30:33.067Z,4.97
2018-07-23T16:33:05.510Z,5.08
2018-07-23T16:35:34.063Z,4.75
2018-07-23T16:38:02.819Z,4.80
2018-07-23T16:40:33.478Z,5.17
2018-07-23T16:43:02.289Z,5.00
2018-07-23T16:45:43.642Z,4.90
2018-07-23T16:48:12.105Z,5.08
2018-07-23T16:50:40.610Z,4.35
2018-07-23T16:53:09.552Z,4.78
2018-07-23T16:55:43.175Z,4.85
2018-07-23T17:00:45.594Z,4.78
2018-07-23T17:03:14.340Z,4.72
2018-07-23T17:05:57.588Z,4.75
2018-07-23T17:08:25.784Z,4.72
2018-07-23T17:10:54.000Z,4.83
2018-07-23T17:13:23.588Z,4.72
2018-07-23T17:15:54.519Z,4.47
2018-07-23T17:18:25.482Z,4.53
2018-07-23T17:20:55.998Z,4.58
2018-07-23T17:23:25.013Z,4.60
2018-07-23T17:25:57.926Z,4.33
2018-07-23T17:28:27.021Z,4.53
2018-07-23T17:31:01.463Z,4.85
2018-07-23T17:33:30.786Z,5.30
2018-07-23T17:36:05.844Z,4.67
2018-07-23T17:38:34.107Z,4.50
2018-07-23T17:41:26.556Z,4.47
2018-07-23T17:43:55.374Z,4.50
2018-07-23T17:46:23.666Z,5.08
2018-07-23T17:48:51.863Z,4.45
2018-07-23T17:51:20.739Z,4.25
2018-07-23T17:53:50.360Z,4.33
2018-07-23T17:56:19.089Z,4.95
2018-07-23T17:58:48.233Z,5.12
2018-07-23T18:01:19.048Z,4.50
2018-07-23T18:03:47.677Z,4.92
2018-07-23T18:06:29.464Z,4.50
2018-07-23T18:08:57.984Z,4.62
2018-07-23T18:11:26.414Z,4.95
2018-07-23T18:13:54.593Z,5.20
2018-07-23T18:16:25.969Z,5.17
2018-07-23T18:18:56.088Z,4.65
2018-07-23T18:21:28.201Z,4.90
2018-07-23T18:23:56.724Z,4.67
2018-07-23T18:26:37.636Z,4.37
2018-07-23T18:29:07.388Z,4.80
2018-07-23T18:31:35.764Z,5.42
2018-07-23T18:34:04.817Z,5.33
2018-07-23T18:36:35.770Z,4.53
2018-07-23T18:39:06.373Z,5.08
2018-07-23T18:41:40.377Z,5.72
2018-07-23T18:44:09.244Z,5.45
2018-07-23T18:46:40.847Z,4.97
2018-07-23T18:49:15.922Z,4.72
2018-07-23T18:51:48.658Z,5.22
2018-07-23T18:54:18.582Z,4.65
2018-07-23T18:56:49.666Z,4.50
2018-07-23T18:59:19.468Z,5.00
2018-07-23T19:01:51.276Z,5.33
2018-07-23T19:04:19.519Z,4.20
2018-07-23T19:06:51.713Z,5.28
2018-07-23T19:09:23.568Z,5.87
2018-07-23T19:11:56.155Z,4.90
2018-07-23T19:14:24.671Z,4.97
2018-07-23T19:16:58.278Z,4.78
2018-07-23T19:19:26.612Z,6.12
2018-07-23T19:22:00.149Z,5.40
2018-07-23T19:24:39.532Z,5.70
2018-07-23T19:27:09.478Z,6.10
2018-07-23T19:29:37.925Z,6.25
2018-07-23T19:32:07.252Z,5.70
2018-07-23T19:34:36.490Z,4.95
2018-07-23T19:37:13.149Z,5.83
2018-07-23T19:39:43.607Z,5.50
2018-07-23T19:42:14.054Z,5.40
2018-07-23T19:44:46.810Z,5.35
2018-07-23T19:47:15.340Z,5.57
2018-07-23T19:49:46.059Z,5.57
2018-07-23T19:52:18.792Z,6.07
2018-07-23T19:54:49.242Z,5.08
2018-07-23T19:57:23.446Z,5.62
2018-07-23T19:59:52.829Z,5.93
2018-07-23T20:02:23.750Z,5.28
2018-07-23T20:04:51.993Z,6.00
2018-07-23T20:07:34.417Z,5.87
2018-07-23T20:10:03.113Z,5.80
2018-07-23T20:12:33.953Z,5.17
2018-07-23T20:15:02.573Z,5.67
2018-07-23T20:17:32.192Z,5.57
2018-07-23T20:20:02.099Z,5.70
2018-07-23T20:22:34.566Z,5.77
2018-07-23T20:25:04.929Z,6.10
2018-07-23T20:27:36.567Z,6.87
2018-07-23T20:30:05.802Z,6.47
2018-07-23T20:32:39.806Z,5.93
2018-07-23T20:35:08.961Z,4.97
2018-07-23T20:37:50.597Z,5.83
2018-07-23T20:40:19.167Z,6.10
2018-07-23T20:42:47.510Z,5.80
2018-07-23T20:45:16.323Z,6.30
2018-07-23T20:47:47.514Z,6.55
2018-07-23T20:50:16.025Z,5.70
2018-07-23T20:52:58.527Z,6.57
2018-07-23T20:55:27.062Z,6.77
2018-07-23T20:57:56.501Z,6.70
2018-07-23T21:00:26.363Z,6.70
2018-07-23T21:02:55.481Z,6.80
2018-07-23T21:05:24.156Z,6.50
2018-07-23T21:08:05.464Z,6.40
2018-07-23T21:10:35.013Z,6.70
2018-07-23T21:13:05.210Z,6.57
2018-07-23T21:15:35.380Z,6.60
2018-07-23T21:18:03.942Z,7.57
2018-07-23T21:20:32.191Z,7.20
2018-07-23T21:23:06.004Z,7.23
2018-07-23T21:25:34.563Z,6.80
2018-07-23T21:30:37.995Z,6.87
2018-07-23T21:33:12.001Z,6.70
2018-07-23T21:35:40.682Z,7.17
2018-07-23T21:38:15.611Z,7.03
2018-07-23T21:40:44.072Z,7.20
2018-07-23T21:43:24.662Z,7.10
2018-07-23T21:45:54.620Z,8.00
2018-07-23T21:48:24.373Z,7.07
2018-07-23T21:50:58.567Z,7.87
2018-07-23T21:53:29.540Z,7.93
2018-07-23T21:55:58.440Z,7.43
2018-07-23T21:58:26.624Z,7.50
2018-07-23T22:00:57.630Z,8.03
2018-07-23T22:03:26.008Z,7.40
2018-07-23T22:05:54.176Z,7.43
2018-07-23T22:08:35.348Z,8.43
2018-07-23T22:11:04.661Z,8.50
2018-07-23T22:13:33.349Z,7.70
2018-07-23T22:16:02.750Z,8.00
2018-07-23T22:18:34.417Z,7.80
2018-07-23T22:21:03.451Z,8.33
2018-07-23T22:23:44.658Z,7.97
2018-07-23T22:26:14.684Z,7.87
2018-07-23T22:28:44.471Z,8.33
2018-07-23T22:31:12.687Z,8.17
2018-07-23T22:33:44.240Z,8.03
2018-07-23T22:36:13.769Z,8.17
2018-07-23T22:38:45.460Z,8.13
2018-07-23T22:41:15.690Z,8.10
2018-07-23T22:43:47.961Z,8.87
2018-07-23T22:46:17.379Z,9.17
2018-07-23T22:49:02.213Z,8.77
2018-07-23T22:51:32.170Z,8.60
2018-07-23T22:54:00.651Z,9.03
2018-07-23T22:56:29.290Z,8.80
2018-07-23T22:58:57.891Z,8.93
2018-07-23T23:01:28.553Z,8.73
2018-07-23T23:04:01.208Z,8.80
2018-07-23T23:06:30.335Z,8.80
2018-07-23T23:09:03.162Z,8.23
2018-07-23T23:11:32.885Z,8.67
2018-07-23T23:14:04.811Z,8.93
2018-07-23T23:16:34.249Z,9.73
2018-07-23T23:19:10.408Z,8.63
2018-07-23T23:21:38.615Z,9.43
2018-07-23T23:24:12.400Z,8.80
2018-07-23T23:26:41.365Z,8.80
2018-07-23T23:29:13.449Z,9.17
2018-07-23T23:31:43.339Z,8.60
2018-07-23T23:34:24.552Z,8.97
2018-07-23T23:36:53.270Z,9.43
2018-07-23T23:39:21.455Z,8.60
2018-07-23T23:41:49.823Z,9.23
2018-07-23T23:44:20.204Z,8.87
2018-07-23T23:46:48.368Z,8.80
2018-07-23T23:49:21.329Z,9.07
2018-07-23T23:51:49.982Z,8.87
2018-07-23T23:54:18.214Z,8.93
2018-07-23T23:56:46.427Z,9.80
2018-07-23T23:59:15.760Z,9.40
